sensor_id;sensor_type;location;lat;lon;timestamp;P1;durP1;ratioP1;P2;durP2;ratioP2
51987;SDS011;38003;52.012;4.346;2023-09-18T00:00:54;37.88;;;31.25;;
51987;SDS011;38003;52.012;4.346;2023-09-18T00:03:24;36.35;;;30.30;;
51987;SDS011;38003;52.012;4.346;2023-09-18T00:05:52;34.85;;;29.83;;
51987;SDS011;38003;52.012;4.346;2023-09-18T00:08:21;37.63;;;30.92;;
51987;SDS011;38003;52.012;4.346;2023-09-18T00:10:50;35.83;;;29.15;;
51987;SDS011;38003;52.012;4.346;2023-09-18T00:13:19;32.97;;;29.27;;
51987;SDS011;38003;52.012;4.346;2023-09-18T00:15:47;34.13;;;29.25;;
51987;SDS011;38003;52.012;4.346;2023-09-18T00:18:19;34.50;;;29.58;;
51987;SDS011;38003;52.012;4.346;2023-09-18T00:20:49;34.83;;;29.63;;
51987;SDS011;38003;52.012;4.346;2023-09-18T00:23:18;32.67;;;29.15;;
51987;SDS011;38003;52.012;4.346;2023-09-18T00:25:47;32.88;;;28.33;;
51987;SDS011;38003;52.012;4.346;2023-09-18T00:28:18;35.05;;;29.73;;
51987;SDS011;38003;52.012;4.346;2023-09-18T00:30:47;32.70;;;29.05;;
51987;SDS011;38003;52.012;4.346;2023-09-18T00:33:16;33.25;;;29.67;;
51987;SDS011;38003;52.012;4.346;2023-09-18T00:35:46;31.77;;;28.13;;
51987;SDS011;38003;52.012;4.346;2023-09-18T00:38:17;32.10;;;28.10;;
51987;SDS011;38003;52.012;4.346;2023-09-18T00:40:46;32.20;;;27.73;;
51987;SDS011;38003;52.012;4.346;2023-09-18T00:43:14;32.20;;;27.73;;
51987;SDS011;38003;52.012;4.346;2023-09-18T00:45:44;30.40;;;27.30;;
51987;SDS011;38003;52.012;4.346;2023-09-18T00:48:14;30.60;;;27.30;;
51987;SDS011;38003;52.012;4.346;2023-09-18T00:50:43;29.77;;;26.58;;
51987;SDS011;38003;52.012;4.346;2023-09-18T00:53:12;31.52;;;28.33;;
51987;SDS011;38003;52.012;4.346;2023-09-18T00:55:43;29.80;;;26.65;;
51987;SDS011;38003;52.012;4.346;2023-09-18T00:58:11;30.00;;;26.92;;
51987;SDS011;38003;52.012;4.346;2023-09-18T01:00:40;29.40;;;26.23;;
51987;SDS011;38003;52.012;4.346;2023-09-18T01:03:09;29.50;;;26.35;;
51987;SDS011;38003;52.012;4.346;2023-09-18T01:05:37;30.45;;;27.13;;
51987;SDS011;38003;52.012;4.346;2023-09-18T01:08:06;29.95;;;26.85;;
51987;SDS011;38003;52.012;4.346;2023-09-18T01:10:38;30.95;;;26.50;;
51987;SDS011;38003;52.012;4.346;2023-09-18T01:13:11;29.45;;;26.50;;
51987;SDS011;38003;52.012;4.346;2023-09-18T01:15:43;30.13;;;27.00;;
51987;SDS011;38003;52.012;4.346;2023-09-18T01:18:12;29.55;;;26.40;;
51987;SDS011;38003;52.012;4.346;2023-09-18T01:20:40;29.15;;;26.08;;
51987;SDS011;38003;52.012;4.346;2023-09-18T01:23:10;29.92;;;26.52;;
51987;SDS011;38003;52.012;4.346;2023-09-18T01:25:39;29.20;;;25.88;;
51987;SDS011;38003;52.012;4.346;2023-09-18T01:28:07;28.52;;;25.48;;
51987;SDS011;38003;52.012;4.346;2023-09-18T01:30:35;28.25;;;25.45;;
51987;SDS011;38003;52.012;4.346;2023-09-18T01:33:04;29.80;;;25.15;;
51987;SDS011;38003;52.012;4.346;2023-09-18T01:35:33;29.08;;;25.92;;
51987;SDS011;38003;52.012;4.346;2023-09-18T01:38:03;29.30;;;26.27;;
51987;SDS011;38003;52.012;4.346;2023-09-18T01:40:33;28.17;;;25.48;;
51987;SDS011;38003;52.012;4.346;2023-09-18T01:43:02;26.65;;;23.95;;
51987;SDS011;38003;52.012;4.346;2023-09-18T01:45:30;26.70;;;23.80;;
51987;SDS011;38003;52.012;4.346;2023-09-18T01:47:59;27.90;;;25.00;;
51987;SDS011;38003;52.012;4.346;2023-09-18T01:50:27;26.85;;;23.75;;
51987;SDS011;38003;52.012;4.346;2023-09-18T01:52:58;27.17;;;24.27;;
51987;SDS011;38003;52.012;4.346;2023-09-18T01:55:27;27.63;;;24.90;;
51987;SDS011;38003;52.012;4.346;2023-09-18T01:57:57;26.35;;;23.58;;
51987;SDS011;38003;52.012;4.346;2023-09-18T02:00:26;27.38;;;23.35;;
51987;SDS011;38003;52.012;4.346;2023-09-18T02:02:55;26.77;;;23.27;;
51987;SDS011;38003;52.012;4.346;2023-09-18T02:05:43;24.48;;;22.00;;
51987;SDS011;38003;52.012;4.346;2023-09-18T02:08:12;24.25;;;22.05;;
51987;SDS011;38003;52.012;4.346;2023-09-18T02:10:40;24.50;;;22.08;;
51987;SDS011;38003;52.012;4.346;2023-09-18T02:13:10;23.45;;;21.05;;
51987;SDS011;38003;52.012;4.346;2023-09-18T02:15:38;26.33;;;21.75;;
51987;SDS011;38003;52.012;4.346;2023-09-18T02:18:06;24.75;;;22.13;;
51987;SDS011;38003;52.012;4.346;2023-09-18T02:20:39;22.73;;;20.45;;
51987;SDS011;38003;52.012;4.346;2023-09-18T02:23:08;21.48;;;19.38;;
51987;SDS011;38003;52.012;4.346;2023-09-18T02:25:36;21.02;;;19.13;;
51987;SDS011;38003;52.012;4.346;2023-09-18T02:28:06;21.05;;;19.08;;
51987;SDS011;38003;52.012;4.346;2023-09-18T02:30:36;21.67;;;19.58;;
51987;SDS011;38003;52.012;4.346;2023-09-18T02:33:04;22.55;;;19.40;;
51987;SDS011;38003;52.012;4.346;2023-09-18T02:35:33;21.20;;;19.08;;
51987;SDS011;38003;52.012;4.346;2023-09-18T02:38:01;21.58;;;19.48;;
51987;SDS011;38003;52.012;4.346;2023-09-18T02:40:30;21.52;;;19.55;;
51987;SDS011;38003;52.012;4.346;2023-09-18T02:42:59;22.10;;;19.90;;
51987;SDS011;38003;52.012;4.346;2023-09-18T02:45:28;20.88;;;18.95;;
51987;SDS011;38003;52.012;4.346;2023-09-18T02:47:57;21.30;;;19.33;;
51987;SDS011;38003;52.012;4.346;2023-09-18T02:50:26;22.10;;;19.92;;
51987;SDS011;38003;52.012;4.346;2023-09-18T02:52:54;21.42;;;19.48;;
51987;SDS011;38003;52.012;4.346;2023-09-18T02:55:23;22.52;;;20.42;;
51987;SDS011;38003;52.012;4.346;2023-09-18T02:57:52;23.27;;;20.98;;
51987;SDS011;38003;52.012;4.346;2023-09-18T03:00:20;22.13;;;20.05;;
51987;SDS011;38003;52.012;4.346;2023-09-18T03:03:07;23.20;;;21.05;;
51987;SDS011;38003;52.012;4.346;2023-09-18T03:05:36;22.48;;;20.38;;
51987;SDS011;38003;52.012;4.346;2023-09-18T03:08:05;23.33;;;21.13;;
51987;SDS011;38003;52.012;4.346;2023-09-18T03:10:33;24.17;;;21.80;;
51987;SDS011;38003;52.012;4.346;2023-09-18T03:13:02;23.60;;;21.55;;
51987;SDS011;38003;52.012;4.346;2023-09-18T03:15:32;22.88;;;20.90;;
51987;SDS011;38003;52.012;4.346;2023-09-18T03:18:02;24.05;;;22.10;;
51987;SDS011;38003;52.012;4.346;2023-09-18T03:20:32;25.67;;;23.52;;
51987;SDS011;38003;52.012;4.346;2023-09-18T03:23:01;26.05;;;23.75;;
51987;SDS011;38003;52.012;4.346;2023-09-18T03:25:30;28.02;;;25.52;;
51987;SDS011;38003;52.012;4.346;2023-09-18T03:28:17;30.38;;;27.40;;
51987;SDS011;38003;52.012;4.346;2023-09-18T03:30:46;34.42;;;31.65;;
51987;SDS011;38003;52.012;4.346;2023-09-18T03:33:14;33.58;;;30.67;;
51987;SDS011;38003;52.012;4.346;2023-09-18T03:35:48;39.45;;;36.42;;
51987;SDS011;38003;52.012;4.346;2023-09-18T03:38:16;42.65;;;39.40;;
51987;SDS011;38003;52.012;4.346;2023-09-18T03:40:45;45.65;;;42.38;;
51987;SDS011;38003;52.012;4.346;2023-09-18T03:43:13;57.13;;;53.35;;
51987;SDS011;38003;52.012;4.346;2023-09-18T03:45:42;61.35;;;57.60;;
51987;SDS011;38003;52.012;4.346;2023-09-18T03:48:10;66.35;;;62.45;;
51987;SDS011;38003;52.012;4.346;2023-09-18T03:50:39;69.05;;;64.88;;
51987;SDS011;38003;52.012;4.346;2023-09-18T03:53:09;76.50;;;72.15;;
51987;SDS011;38003;52.012;4.346;2023-09-18T03:55:38;79.30;;;74.90;;
51987;SDS011;38003;52.012;4.346;2023-09-18T03:58:06;80.60;;;75.82;;
51987;SDS011;38003;52.012;4.346;2023-09-18T04:00:36;81.97;;;77.38;;
51987;SDS011;38003;52.012;4.346;2023-09-18T04:03:05;82.97;;;78.30;;
51987;SDS011;38003;52.012;4.346;2023-09-18T04:05:33;87.55;;;82.53;;
51987;SDS011;38003;52.012;4.346;2023-09-18T04:08:02;87.43;;;82.78;;
51987;SDS011;38003;52.012;4.346;2023-09-18T04:10:32;92.95;;;88.03;;
51987;SDS011;38003;52.012;4.346;2023-09-18T04:13:03;99.95;;;94.93;;
51987;SDS011;38003;52.012;4.346;2023-09-18T04:15:31;107.68;;;102.10;;
51987;SDS011;38003;52.012;4.346;2023-09-18T04:17:59;114.57;;;108.50;;
51987;SDS011;38003;52.012;4.346;2023-09-18T04:20:27;116.55;;;110.65;;
51987;SDS011;38003;52.012;4.346;2023-09-18T04:25:43;121.85;;;116.00;;
51987;SDS011;38003;52.012;4.346;2023-09-18T04:28:12;120.47;;;114.40;;
51987;SDS011;38003;52.012;4.346;2023-09-18T04:30:43;124.53;;;118.40;;
51987;SDS011;38003;52.012;4.346;2023-09-18T04:33:12;120.95;;;115.00;;
51987;SDS011;38003;52.012;4.346;2023-09-18T04:35:41;117.65;;;111.78;;
51987;SDS011;38003;52.012;4.346;2023-09-18T04:38:09;113.05;;;107.32;;
51987;SDS011;38003;52.012;4.346;2023-09-18T04:40:37;116.60;;;110.90;;
51987;SDS011;38003;52.012;4.346;2023-09-18T04:43:08;118.97;;;113.13;;
51987;SDS011;38003;52.012;4.346;2023-09-18T04:45:37;125.25;;;118.93;;
51987;SDS011;38003;52.012;4.346;2023-09-18T04:48:05;126.55;;;120.38;;
51987;SDS011;38003;52.012;4.346;2023-09-18T04:50:36;133.15;;;126.47;;
51987;SDS011;38003;52.012;4.346;2023-09-18T04:53:04;139.02;;;132.07;;
51987;SDS011;38003;52.012;4.346;2023-09-18T04:55:32;139.75;;;133.13;;
51987;SDS011;38003;52.012;4.346;2023-09-18T04:58:01;142.07;;;135.05;;
51987;SDS011;38003;52.012;4.346;2023-09-18T05:00:31;150.25;;;142.88;;
51987;SDS011;38003;52.012;4.346;2023-09-18T05:02:59;156.07;;;148.60;;
51987;SDS011;38003;52.012;4.346;2023-09-18T05:05:29;159.25;;;151.57;;
51987;SDS011;38003;52.012;4.346;2023-09-18T05:07:58;160.55;;;153.00;;
51987;SDS011;38003;52.012;4.346;2023-09-18T05:10:26;183.45;;;175.02;;
51987;SDS011;38003;52.012;4.346;2023-09-18T05:12:54;174.05;;;166.05;;
51987;SDS011;38003;52.012;4.346;2023-09-18T05:15:25;162.20;;;154.52;;
51987;SDS011;38003;52.012;4.346;2023-09-18T05:17:57;160.50;;;152.65;;
51987;SDS011;38003;52.012;4.346;2023-09-18T05:20:26;152.32;;;144.90;;
51987;SDS011;38003;52.012;4.346;2023-09-18T05:22:55;153.18;;;145.65;;
51987;SDS011;38003;52.012;4.346;2023-09-18T05:25:24;155.57;;;148.27;;
51987;SDS011;38003;52.012;4.346;2023-09-18T05:27:53;161.65;;;154.18;;
51987;SDS011;38003;52.012;4.346;2023-09-18T05:30:24;158.27;;;150.93;;
51987;SDS011;38003;52.012;4.346;2023-09-18T05:32:54;156.00;;;148.52;;
51987;SDS011;38003;52.012;4.346;2023-09-18T05:35:23;153.70;;;146.55;;
51987;SDS011;38003;52.012;4.346;2023-09-18T05:37:52;155.18;;;147.77;;
51987;SDS011;38003;52.012;4.346;2023-09-18T05:40:23;145.20;;;138.13;;
51987;SDS011;38003;52.012;4.346;2023-09-18T05:42:53;140.45;;;133.73;;
51987;SDS011;38003;52.012;4.346;2023-09-18T05:45:21;133.50;;;127.05;;
51987;SDS011;38003;52.012;4.346;2023-09-18T05:47:50;140.32;;;133.75;;
51987;SDS011;38003;52.012;4.346;2023-09-18T05:50:19;136.10;;;129.20;;
51987;SDS011;38003;52.012;4.346;2023-09-18T05:52:49;140.52;;;133.65;;
51987;SDS011;38003;52.012;4.346;2023-09-18T05:55:18;139.23;;;132.50;;
51987;SDS011;38003;52.012;4.346;2023-09-18T05:57:47;137.02;;;130.15;;
51987;SDS011;38003;52.012;4.346;2023-09-18T06:00:15;137.48;;;130.60;;
51987;SDS011;38003;52.012;4.346;2023-09-18T06:02:44;136.70;;;129.90;;
51987;SDS011;38003;52.012;4.346;2023-09-18T06:05:13;138.88;;;132.02;;
51987;SDS011;38003;52.012;4.346;2023-09-18T06:07:42;145.98;;;138.43;;
51987;SDS011;38003;52.012;4.346;2023-09-18T06:10:13;147.63;;;140.50;;
51987;SDS011;38003;52.012;4.346;2023-09-18T06:12:41;151.55;;;144.15;;
51987;SDS011;38003;52.012;4.346;2023-09-18T06:15:09;141.40;;;134.40;;
51987;SDS011;38003;52.012;4.346;2023-09-18T06:17:39;145.20;;;138.18;;
51987;SDS011;38003;52.012;4.346;2023-09-18T06:20:08;148.77;;;141.25;;
51987;SDS011;38003;52.012;4.346;2023-09-18T06:22:37;164.25;;;156.15;;
51987;SDS011;38003;52.012;4.346;2023-09-18T06:25:06;165.40;;;157.18;;
51987;SDS011;38003;52.012;4.346;2023-09-18T06:27:38;165.27;;;156.90;;
51987;SDS011;38003;52.012;4.346;2023-09-18T06:30:06;157.50;;;149.88;;
51987;SDS011;38003;52.012;4.346;2023-09-18T06:32:35;171.10;;;163.05;;
51987;SDS011;38003;52.012;4.346;2023-09-18T06:35:04;161.52;;;153.77;;
51987;SDS011;38003;52.012;4.346;2023-09-18T06:37:33;162.32;;;154.45;;
51987;SDS011;38003;52.012;4.346;2023-09-18T06:40:01;152.45;;;145.13;;
51987;SDS011;38003;52.012;4.346;2023-09-18T06:42:32;139.93;;;133.40;;
51987;SDS011;38003;52.012;4.346;2023-09-18T06:45:01;135.20;;;128.98;;
51987;SDS011;38003;52.012;4.346;2023-09-18T06:47:33;146.02;;;139.15;;
51987;SDS011;38003;52.012;4.346;2023-09-18T06:50:01;144.38;;;137.63;;
51987;SDS011;38003;52.012;4.346;2023-09-18T06:52:31;131.93;;;125.70;;
51987;SDS011;38003;52.012;4.346;2023-09-18T06:54:59;124.68;;;118.72;;
51987;SDS011;38003;52.012;4.346;2023-09-18T06:57:28;119.57;;;113.63;;
51987;SDS011;38003;52.012;4.346;2023-09-18T06:59:56;108.68;;;103.53;;
51987;SDS011;38003;52.012;4.346;2023-09-18T07:02:25;95.28;;;90.22;;
51987;SDS011;38003;52.012;4.346;2023-09-18T07:04:54;85.13;;;80.93;;
51987;SDS011;38003;52.012;4.346;2023-09-18T07:07:22;66.72;;;63.13;;
51987;SDS011;38003;52.012;4.346;2023-09-18T07:09:52;56.85;;;53.83;;
51987;SDS011;38003;52.012;4.346;2023-09-18T07:12:23;56.50;;;52.90;;
51987;SDS011;38003;52.012;4.346;2023-09-18T07:14:51;54.03;;;50.97;;
51987;SDS011;38003;52.012;4.346;2023-09-18T07:17:20;51.58;;;48.65;;
51987;SDS011;38003;52.012;4.346;2023-09-18T07:19:49;48.72;;;46.10;;
51987;SDS011;38003;52.012;4.346;2023-09-18T07:22:17;50.85;;;48.28;;
51987;SDS011;38003;52.012;4.346;2023-09-18T07:24:46;35.20;;;33.03;;
51987;SDS011;38003;52.012;4.346;2023-09-18T07:27:14;31.55;;;29.60;;
51987;SDS011;38003;52.012;4.346;2023-09-18T07:29:42;30.50;;;28.85;;
51987;SDS011;38003;52.012;4.346;2023-09-18T07:32:11;32.53;;;30.63;;
51987;SDS011;38003;52.012;4.346;2023-09-18T07:34:56;31.35;;;29.48;;
51987;SDS011;38003;52.012;4.346;2023-09-18T07:37:26;37.30;;;35.28;;
51987;SDS011;38003;52.012;4.346;2023-09-18T07:39:54;44.40;;;42.10;;
51987;SDS011;38003;52.012;4.346;2023-09-18T07:42:23;38.30;;;36.20;;
51987;SDS011;38003;52.012;4.346;2023-09-18T07:44:52;45.80;;;43.28;;
51987;SDS011;38003;52.012;4.346;2023-09-18T07:47:24;29.73;;;28.05;;
51987;SDS011;38003;52.012;4.346;2023-09-18T07:49:52;30.75;;;29.00;;
51987;SDS011;38003;52.012;4.346;2023-09-18T07:52:22;33.50;;;31.65;;
51987;SDS011;38003;52.012;4.346;2023-09-18T07:54:51;20.33;;;19.13;;
51987;SDS011;38003;52.012;4.346;2023-09-18T07:57:19;20.95;;;19.60;;
51987;SDS011;38003;52.012;4.346;2023-09-18T07:59:49;23.45;;;21.85;;
51987;SDS011;38003;52.012;4.346;2023-09-18T08:02:17;27.17;;;25.58;;
51987;SDS011;38003;52.012;4.346;2023-09-18T08:04:46;25.55;;;24.05;;
51987;SDS011;38003;52.012;4.346;2023-09-18T08:07:14;20.67;;;19.08;;
51987;SDS011;38003;52.012;4.346;2023-09-18T08:09:43;21.35;;;19.98;;
51987;SDS011;38003;52.012;4.346;2023-09-18T08:12:13;18.05;;;16.65;;
51987;SDS011;38003;52.012;4.346;2023-09-18T08:14:42;16.70;;;15.70;;
51987;SDS011;38003;52.012;4.346;2023-09-18T08:17:10;23.75;;;22.48;;
51987;SDS011;38003;52.012;4.346;2023-09-18T08:19:38;16.42;;;15.40;;
51987;SDS011;38003;52.012;4.346;2023-09-18T08:22:07;10.93;;;10.13;;
51987;SDS011;38003;52.012;4.346;2023-09-18T08:24:38;8.07;;;7.38;;
51987;SDS011;38003;52.012;4.346;2023-09-18T08:27:07;9.57;;;6.82;;
51987;SDS011;38003;52.012;4.346;2023-09-18T08:29:37;5.47;;;4.72;;
51987;SDS011;38003;52.012;4.346;2023-09-18T08:32:06;5.72;;;4.55;;
51987;SDS011;38003;52.012;4.346;2023-09-18T08:34:34;5.65;;;4.40;;
51987;SDS011;38003;52.012;4.346;2023-09-18T08:37:02;5.90;;;3.55;;
51987;SDS011;38003;52.012;4.346;2023-09-18T08:39:31;5.20;;;4.40;;
51987;SDS011;38003;52.012;4.346;2023-09-18T08:42:00;5.47;;;4.30;;
51987;SDS011;38003;52.012;4.346;2023-09-18T08:44:32;5.53;;;4.30;;
51987;SDS011;38003;52.012;4.346;2023-09-18T08:47:00;6.25;;;4.43;;
51987;SDS011;38003;52.012;4.346;2023-09-18T08:49:29;5.13;;;4.45;;
51987;SDS011;38003;52.012;4.346;2023-09-18T08:51:58;7.50;;;4.20;;
51987;SDS011;38003;52.012;4.346;2023-09-18T08:54:27;5.70;;;4.93;;
51987;SDS011;38003;52.012;4.346;2023-09-18T08:56:55;4.88;;;4.43;;
51987;SDS011;38003;52.012;4.346;2023-09-18T08:59:24;4.60;;;3.88;;
51987;SDS011;38003;52.012;4.346;2023-09-18T09:01:54;4.30;;;3.80;;
51987;SDS011;38003;52.012;4.346;2023-09-18T09:04:22;5.75;;;4.18;;
51987;SDS011;38003;52.012;4.346;2023-09-18T09:06:51;6.60;;;4.40;;
51987;SDS011;38003;52.012;4.346;2023-09-18T09:09:20;6.80;;;4.40;;
51987;SDS011;38003;52.012;4.346;2023-09-18T09:11:49;5.25;;;4.40;;
51987;SDS011;38003;52.012;4.346;2023-09-18T09:14:17;6.32;;;3.97;;
51987;SDS011;38003;52.012;4.346;2023-09-18T09:16:49;5.68;;;3.95;;
51987;SDS011;38003;52.012;4.346;2023-09-18T09:19:19;4.28;;;3.80;;
51987;SDS011;38003;52.012;4.346;2023-09-18T09:21:56;5.10;;;3.22;;
51987;SDS011;38003;52.012;4.346;2023-09-18T09:24:37;3.80;;;3.28;;
51987;SDS011;38003;52.012;4.346;2023-09-18T09:27:05;5.88;;;3.50;;
51987;SDS011;38003;52.012;4.346;2023-09-18T09:29:34;3.97;;;3.30;;
51987;SDS011;38003;52.012;4.346;2023-09-18T09:32:12;4.88;;;3.42;;
51987;SDS011;38003;52.012;4.346;2023-09-18T09:34:43;3.22;;;3.03;;
51987;SDS011;38003;52.012;4.346;2023-09-18T09:37:12;5.82;;;3.53;;
51987;SDS011;38003;52.012;4.346;2023-09-18T09:39:47;4.55;;;3.00;;
51987;SDS011;38003;52.012;4.346;2023-09-18T09:42:16;4.28;;;3.40;;
51987;SDS011;38003;52.012;4.346;2023-09-18T09:45:01;4.20;;;3.40;;
51987;SDS011;38003;52.012;4.346;2023-09-18T09:47:32;6.68;;;3.88;;
51987;SDS011;38003;52.012;4.346;2023-09-18T09:50:06;6.20;;;3.67;;
51987;SDS011;38003;52.012;4.346;2023-09-18T09:52:36;5.07;;;4.03;;
51987;SDS011;38003;52.012;4.346;2023-09-18T09:55:20;4.50;;;3.88;;
51987;SDS011;38003;52.012;4.346;2023-09-18T09:57:50;5.05;;;3.83;;
51987;SDS011;38003;52.012;4.346;2023-09-18T10:00:18;8.38;;;3.80;;
51987;SDS011;38003;52.012;4.346;2023-09-18T10:02:54;4.88;;;3.53;;
51987;SDS011;38003;52.012;4.346;2023-09-18T10:05:27;5.60;;;3.75;;
51987;SDS011;38003;52.012;4.346;2023-09-18T10:07:57;6.57;;;4.22;;
51987;SDS011;38003;52.012;4.346;2023-09-18T10:10:28;5.53;;;4.40;;
51987;SDS011;38003;52.012;4.346;2023-09-18T10:12:57;6.72;;;3.92;;
51987;SDS011;38003;52.012;4.346;2023-09-18T10:15:28;6.85;;;4.82;;
51987;SDS011;38003;52.012;4.346;2023-09-18T10:17:59;5.47;;;4.00;;
51987;SDS011;38003;52.012;4.346;2023-09-18T10:20:29;5.35;;;4.53;;
51987;SDS011;38003;52.012;4.346;2023-09-18T10:22:58;6.90;;;4.32;;
51987;SDS011;38003;52.012;4.346;2023-09-18T10:25:28;6.25;;;4.10;;
51987;SDS011;38003;52.012;4.346;2023-09-18T10:27:58;6.68;;;4.00;;
51987;SDS011;38003;52.012;4.346;2023-09-18T10:30:29;5.60;;;3.38;;
51987;SDS011;38003;52.012;4.346;2023-09-18T10:32:57;5.50;;;3.15;;
51987;SDS011;38003;52.012;4.346;2023-09-18T10:35:27;5.15;;;3.20;;
51987;SDS011;38003;52.012;4.346;2023-09-18T10:37:57;4.38;;;3.00;;
51987;SDS011;38003;52.012;4.346;2023-09-18T10:40:26;4.82;;;3.10;;
51987;SDS011;38003;52.012;4.346;2023-09-18T10:42:57;4.97;;;3.30;;
51987;SDS011;38003;52.012;4.346;2023-09-18T10:45:25;3.78;;;2.80;;
51987;SDS011;38003;52.012;4.346;2023-09-18T10:47:54;4.53;;;2.63;;
51987;SDS011;38003;52.012;4.346;2023-09-18T10:50:23;6.07;;;2.90;;
51987;SDS011;38003;52.012;4.346;2023-09-18T10:52:52;4.75;;;2.70;;
51987;SDS011;38003;52.012;4.346;2023-09-18T10:55:22;9.10;;;3.15;;
51987;SDS011;38003;52.012;4.346;2023-09-18T10:57:51;5.88;;;2.53;;
51987;SDS011;38003;52.012;4.346;2023-09-18T11:00:20;3.90;;;2.83;;
51987;SDS011;38003;52.012;4.346;2023-09-18T11:02:51;5.05;;;2.50;;
51987;SDS011;38003;52.012;4.346;2023-09-18T11:05:29;4.25;;;2.58;;
51987;SDS011;38003;52.012;4.346;2023-09-18T11:10:55;3.30;;;2.40;;
51987;SDS011;38003;52.012;4.346;2023-09-18T11:13:28;4.60;;;2.33;;
51987;SDS011;38003;52.012;4.346;2023-09-18T11:15:59;3.22;;;2.33;;
51987;SDS011;38003;52.012;4.346;2023-09-18T11:18:32;4.20;;;2.40;;
51987;SDS011;38003;52.012;4.346;2023-09-18T11:21:07;4.47;;;2.30;;
51987;SDS011;38003;52.012;4.346;2023-09-18T11:23:36;3.47;;;2.35;;
51987;SDS011;38003;52.012;4.346;2023-09-18T11:26:08;3.60;;;2.67;;
51987;SDS011;38003;52.012;4.346;2023-09-18T11:28:37;4.43;;;2.75;;
51987;SDS011;38003;52.012;4.346;2023-09-18T11:31:06;5.82;;;2.75;;
51987;SDS011;38003;52.012;4.346;2023-09-18T11:33:35;4.97;;;2.47;;
51987;SDS011;38003;52.012;4.346;2023-09-18T11:36:04;5.78;;;2.40;;
51987;SDS011;38003;52.012;4.346;2023-09-18T11:38:34;3.25;;;2.50;;
51987;SDS011;38003;52.012;4.346;2023-09-18T11:41:21;3.70;;;2.78;;
51987;SDS011;38003;52.012;4.346;2023-09-18T11:43:51;5.05;;;2.88;;
51987;SDS011;38003;52.012;4.346;2023-09-18T11:46:19;3.65;;;2.70;;
51987;SDS011;38003;52.012;4.346;2023-09-18T11:48:48;3.08;;;2.75;;
51987;SDS011;38003;52.012;4.346;2023-09-18T11:51:20;4.70;;;3.00;;
51987;SDS011;38003;52.012;4.346;2023-09-18T11:53:49;6.28;;;2.78;;
51987;SDS011;38003;52.012;4.346;2023-09-18T11:56:21;5.53;;;2.80;;
51987;SDS011;38003;52.012;4.346;2023-09-18T11:58:50;3.97;;;2.58;;
51987;SDS011;38003;52.012;4.346;2023-09-18T12:01:21;5.07;;;2.70;;
51987;SDS011;38003;52.012;4.346;2023-09-18T12:03:52;4.40;;;2.85;;
51987;SDS011;38003;52.012;4.346;2023-09-18T12:06:21;6.93;;;2.95;;
51987;SDS011;38003;52.012;4.346;2023-09-18T12:08:51;4.60;;;2.80;;
51987;SDS011;38003;52.012;4.346;2023-09-18T12:11:21;5.57;;;2.72;;
51987;SDS011;38003;52.012;4.346;2023-09-18T12:13:50;4.13;;;2.42;;
51987;SDS011;38003;52.012;4.346;2023-09-18T12:16:18;4.80;;;3.17;;
51987;SDS011;38003;52.012;4.346;2023-09-18T12:18:47;3.75;;;3.38;;
51987;SDS011;38003;52.012;4.346;2023-09-18T12:21:16;4.40;;;3.33;;
51987;SDS011;38003;52.012;4.346;2023-09-18T12:23:44;4.10;;;3.58;;
51987;SDS011;38003;52.012;4.346;2023-09-18T14:35:36;4.15;;;1.33;;
51987;SDS011;38003;52.012;4.346;2023-09-18T14:38:05;5.68;;;1.52;;
51987;SDS011;38003;52.012;4.346;2023-09-18T14:40:34;5.43;;;1.60;;
51987;SDS011;38003;52.012;4.346;2023-09-18T14:43:02;5.40;;;1.30;;
51987;SDS011;38003;52.012;4.346;2023-09-18T14:45:32;3.63;;;1.33;;
51987;SDS011;38003;52.012;4.346;2023-09-18T14:48:01;5.60;;;1.58;;
51987;SDS011;38003;52.012;4.346;2023-09-18T14:50:29;5.90;;;2.05;;
51987;SDS011;38003;52.012;4.346;2023-09-18T14:52:59;8.57;;;2.10;;
51987;SDS011;38003;52.012;4.346;2023-09-18T14:55:27;5.40;;;2.03;;
51987;SDS011;38003;52.012;4.346;2023-09-18T14:57:56;5.40;;;2.00;;
51987;SDS011;38003;52.012;4.346;2023-09-18T15:00:25;8.60;;;2.15;;
51987;SDS011;38003;52.012;4.346;2023-09-18T15:02:53;7.85;;;2.30;;
51987;SDS011;38003;52.012;4.346;2023-09-18T15:05:22;8.43;;;2.00;;
51987;SDS011;38003;52.012;4.346;2023-09-18T15:07:50;6.90;;;2.03;;
51987;SDS011;38003;52.012;4.346;2023-09-18T15:10:21;6.22;;;1.80;;
51987;SDS011;38003;52.012;4.346;2023-09-18T15:12:49;7.30;;;1.90;;
51987;SDS011;38003;52.012;4.346;2023-09-18T15:15:17;5.07;;;2.00;;
51987;SDS011;38003;52.012;4.346;2023-09-18T15:17:46;5.22;;;1.73;;
51987;SDS011;38003;52.012;4.346;2023-09-18T15:20:16;9.13;;;2.08;;
51987;SDS011;38003;52.012;4.346;2023-09-18T15:22:44;6.35;;;2.00;;
51987;SDS011;38003;52.012;4.346;2023-09-18T15:25:13;6.65;;;2.15;;
51987;SDS011;38003;52.012;4.346;2023-09-18T15:27:43;8.25;;;2.22;;
51987;SDS011;38003;52.012;4.346;2023-09-18T15:30:12;7.30;;;2.25;;
51987;SDS011;38003;52.012;4.346;2023-09-18T15:33:00;5.43;;;2.00;;
51987;SDS011;38003;52.012;4.346;2023-09-18T15:35:28;8.45;;;2.20;;
51987;SDS011;38003;52.012;4.346;2023-09-18T15:37:57;9.93;;;2.15;;
51987;SDS011;38003;52.012;4.346;2023-09-18T15:40:26;4.88;;;2.20;;
51987;SDS011;38003;52.012;4.346;2023-09-18T15:42:56;3.38;;;1.83;;
51987;SDS011;38003;52.012;4.346;2023-09-18T15:45:24;6.75;;;2.30;;
51987;SDS011;38003;52.012;4.346;2023-09-18T15:47:52;4.88;;;1.88;;
51987;SDS011;38003;52.012;4.346;2023-09-18T15:50:21;7.25;;;2.20;;
51987;SDS011;38003;52.012;4.346;2023-09-18T15:52:50;6.22;;;1.98;;
51987;SDS011;38003;52.012;4.346;2023-09-18T15:55:18;5.72;;;2.20;;
51987;SDS011;38003;52.012;4.346;2023-09-18T15:57:48;4.32;;;1.70;;
51987;SDS011;38003;52.012;4.346;2023-09-18T16:00:19;4.93;;;2.17;;
51987;SDS011;38003;52.012;4.346;2023-09-18T16:02:48;4.63;;;2.03;;
51987;SDS011;38003;52.012;4.346;2023-09-18T16:05:18;7.43;;;1.92;;
51987;SDS011;38003;52.012;4.346;2023-09-18T16:07:52;5.35;;;2.00;;
51987;SDS011;38003;52.012;4.346;2023-09-18T16:10:29;8.25;;;2.25;;
51987;SDS011;38003;52.012;4.346;2023-09-18T16:12:58;8.23;;;2.65;;
51987;SDS011;38003;52.012;4.346;2023-09-18T16:15:28;8.07;;;2.08;;
51987;SDS011;38003;52.012;4.346;2023-09-18T16:17:56;10.18;;;2.53;;
51987;SDS011;38003;52.012;4.346;2023-09-18T16:20:24;7.25;;;2.00;;
51987;SDS011;38003;52.012;4.346;2023-09-18T16:22:53;8.73;;;2.38;;
51987;SDS011;38003;52.012;4.346;2023-09-18T16:25:21;14.60;;;2.85;;
51987;SDS011;38003;52.012;4.346;2023-09-18T16:27:49;7.28;;;2.20;;
51987;SDS011;38003;52.012;4.346;2023-09-18T16:30:20;9.98;;;2.38;;
51987;SDS011;38003;52.012;4.346;2023-09-18T16:32:50;9.00;;;2.40;;
51987;SDS011;38003;52.012;4.346;2023-09-18T16:35:27;12.38;;;2.70;;
51987;SDS011;38003;52.012;4.346;2023-09-18T16:37:55;14.82;;;2.80;;
51987;SDS011;38003;52.012;4.346;2023-09-18T16:40:24;12.45;;;2.70;;
51987;SDS011;38003;52.012;4.346;2023-09-18T16:42:52;13.10;;;2.90;;
51987;SDS011;38003;52.012;4.346;2023-09-18T16:45:20;13.15;;;2.55;;
51987;SDS011;38003;52.012;4.346;2023-09-18T16:47:50;10.13;;;2.70;;
51987;SDS011;38003;52.012;4.346;2023-09-18T16:50:19;12.63;;;2.50;;
51987;SDS011;38003;52.012;4.346;2023-09-18T16:52:49;10.85;;;2.83;;
51987;SDS011;38003;52.012;4.346;2023-09-18T16:55:18;15.48;;;3.08;;
51987;SDS011;38003;52.012;4.346;2023-09-18T16:57:46;9.95;;;2.60;;